Home > Products > Valid Products > MTR

000
SAUS44 KLZK 300654
MTRMWT
METAR KMWT 300653Z AUTO 00000KT 10SM CLR 13/08 A3011 RMK AO2 SLP195
T01330083





000
SAUS44 KLZK 300554
MTRMWT
METAR KMWT 300553Z AUTO VRB03KT 10SM CLR 17/08 A3011 RMK AO2 SLP192
T01670078 10233 20156 402560033 53014





000
SAUS44 KLZK 300554
MTRMWT
METAR KMWT 300553Z AUTO VRB03KT 10SM CLR 17/08 A3011 RMK AO2 SLP192
T01670078 10233 20156 402560033 53014





000
SAUS44 KLZK 300454
MTRMWT
METAR KMWT 300453Z AUTO 00000KT 10SM BKN070 17/09 A3009 RMK AO2
SLP189 T01720089





000
SAUS44 KLZK 300454
MTRMWT
METAR KMWT 300453Z AUTO 00000KT 10SM BKN070 17/09 A3009 RMK AO2
SLP189 T01720089





000
SAUS44 KLZK 300354
MTRMWT
METAR KMWT 300353Z AUTO 00000KT 10SM CLR 16/10 A3007 RMK AO2 SLP181
T01610100





000
SAUS44 KLZK 300354
MTRMWT
METAR KMWT 300353Z AUTO 00000KT 10SM CLR 16/10 A3007 RMK AO2 SLP181
T01610100





000
SAUS44 KLZK 300254
MTRMWT
METAR KMWT 300253Z AUTO 00000KT 10SM CLR 18/11 A3007 RMK AO2 SLP181
T01830111 53027





000
SAUS44 KLZK 300254
MTRMWT
METAR KMWT 300253Z AUTO 00000KT 10SM CLR 18/11 A3007 RMK AO2 SLP181
T01830111 53027





000
SAUS44 KLZK 300154
MTRMWT
METAR KMWT 300153Z AUTO 00000KT 10SM OVC085 18/13 A3003 RMK AO2
SLP170 T01830128





000
SAUS44 KLZK 300054
MTRMWT
METAR KMWT 300053Z AUTO 00000KT 10SM CLR 21/12 A3000 RMK AO2 SLP160
T02060117





000
SAUS44 KLZK 300054
MTRMWT
METAR KMWT 300053Z AUTO 00000KT 10SM CLR 21/12 A3000 RMK AO2 SLP160
T02060117





000
SAUS44 KLZK 292354
MTRMWT
METAR KMWT 292353Z AUTO 00000KT 10SM CLR 24/12 A2998 RMK AO2 SLP153
T02390117 10256 20161 53000





000
SAUS44 KLZK 292354
MTRMWT
METAR KMWT 292353Z AUTO 00000KT 10SM CLR 24/12 A2998 RMK AO2 SLP153
T02390117 10256 20161 53000





000
SAUS44 KLZK 292254
MTRMWT
METAR KMWT 292253Z AUTO VRB03KT 10SM CLR 25/10 A2997 RMK AO2 SLP147
T02500100





000
SAUS44 KLZK 292254
MTRMWT
METAR KMWT 292253Z AUTO VRB03KT 10SM CLR 25/10 A2997 RMK AO2 SLP147
T02500100





000
SAUS44 KLZK 292154
MTRMWT
METAR KMWT 292153Z AUTO VRB04KT 10SM CLR 25/09 A2997 RMK AO2 SLP146
T02500094





000
SAUS44 KLZK 292154
MTRMWT
METAR KMWT 292153Z AUTO VRB04KT 10SM CLR 25/09 A2997 RMK AO2 SLP146
T02500094





000
SAUS44 KLZK 292054
MTRMWT
METAR KMWT 292053Z AUTO VRB06KT 10SM CLR 23/09 A2998 RMK AO2 SLP152
T02330089 56024





000
SAUS44 KLZK 291955
MTRMWT
METAR KMWT 291953Z AUTO 23007KT 170V270 10SM CLR 21/09 A3001 RMK AO2
SLP162 T02110089





000
SAUS44 KLZK 291854
MTRMWT
METAR KMWT 291853Z AUTO 16007KT 130V200 10SM CLR 19/08 A3002 RMK AO2
SLP166 T01890083





000
SAUS44 KLZK 291854
MTRMWT
METAR KMWT 291853Z AUTO 16007KT 130V200 10SM CLR 19/08 A3002 RMK AO2
SLP166 T01890083





000
SAUS44 KLZK 291754
MTRMWT
METAR KMWT 291753Z AUTO 16007KT 150V210 10SM CLR 16/08 A3006 RMK AO2
SLP179 T01610078 10161 20033 58015





000
SAUS44 KLZK 291754
MTRMWT
METAR KMWT 291753Z AUTO 16007KT 150V210 10SM CLR 16/08 A3006 RMK AO2
SLP179 T01610078 10161 20033 58015





000
SAUS44 KLZK 291654
MTRMWT
METAR KMWT 291653Z AUTO 17007KT 10SM CLR 12/07 A3009 RMK AO2 SLP192
T01220072





000
SAUS44 KLZK 291621
MTRMWT
SPECI KMWT 291620Z AUTO VRB06KT 10SM FEW015 12/07 A3010 RMK AO2
T01170067





000
SAUS44 KLZK 291604
MTRMWT
SPECI KMWT 291604Z AUTO VRB03KT 10SM BKN015 11/06 A3010 RMK AO2
T01060061





000
SAUS44 KLZK 291554
MTRMWT
METAR KMWT 291553Z AUTO 14006KT 10SM OVC014 10/06 A3010 RMK AO2
SLP197 T01000056





000
SAUS44 KLZK 291554
MTRMWT
METAR KMWT 291553Z AUTO 14006KT 10SM OVC014 10/06 A3010 RMK AO2
SLP197 T01000056





000
SAUS44 KLZK 291534
MTRMWT
SPECI KMWT 291533Z AUTO 14006KT 10SM BKN014 09/06 A3010 RMK AO2
T00940056





000
SAUS44 KLZK 291521
MTRMWT
SPECI KMWT 291520Z AUTO 14006KT 10SM BKN015 09/05 A3010 RMK AO2
T00940050





000
SAUS44 KLZK 291454
MTRMWT
METAR KMWT 291453Z AUTO VRB04KT 10SM SCT015 09/04 A3010 RMK AO2
SLP196 T00940044 58010





000
SAUS44 KLZK 291354
MTRMWT
METAR KMWT 291353Z AUTO VRB03KT 10SM CLR 07/02 A3011 RMK AO2 SLP200
T00720017





000
SAUS44 KLZK 291354
MTRMWT
METAR KMWT 291353Z AUTO VRB03KT 10SM CLR 07/02 A3011 RMK AO2 SLP200
T00720017





000
SAUS44 KLZK 291254
MTRMWT
METAR KMWT 291253Z AUTO VRB03KT 10SM CLR 05/00 A3013 RMK AO2 SLP208
T00500000





000
SAUS44 KLZK 291254
MTRMWT
METAR KMWT 291253Z AUTO VRB03KT 10SM CLR 05/00 A3013 RMK AO2 SLP208
T00500000





000
SAUS44 KLZK 291154
MTRMWT
METAR KMWT 291153Z AUTO 00000KT 10SM CLR 03/00 A3013 RMK AO2 SLP207
T00330000 10056 20033 56010





000
SAUS44 KLZK 291154
MTRMWT
METAR KMWT 291153Z AUTO 00000KT 10SM CLR 03/00 A3013 RMK AO2 SLP207
T00330000 10056 20033 56010





000
SAUS44 KLZK 291054
MTRMWT
METAR KMWT 291053Z AUTO 00000KT 10SM CLR 03/00 A3013 RMK AO2 SLP207
T00330000





000
SAUS44 KLZK 290954
MTRMWT
METAR KMWT 290953Z AUTO 10003KT 10SM CLR 04/00 A3014 RMK AO2 SLP208
T00440000





000
SAUS44 KLZK 290854
MTRMWT
METAR KMWT 290853Z AUTO 00000KT 10SM CLR 04/00 A3016 RMK AO2 SLP214
T00440000 58012





000
SAUS44 KLZK 290754
MTRMWT
METAR KMWT 290753Z AUTO 00000KT 10SM CLR 04/00 A3018 RMK AO2 SLP223
T00440000





000
SAUS44 KLZK 290754
MTRMWT
METAR KMWT 290753Z AUTO 00000KT 10SM CLR 04/00 A3018 RMK AO2 SLP223
T00440000





000
SAUS44 KLZK 290654
MTRMWT
METAR KMWT 290653Z AUTO 11003KT 10SM CLR 05/00 A3019 RMK AO2 SLP227
T00500000





000
SAUS44 KLZK 290654
MTRMWT
METAR KMWT 290653Z AUTO 11003KT 10SM CLR 05/00 A3019 RMK AO2 SLP227
T00500000





000
SAUS44 KLZK 290554
MTRMWT
METAR KMWT 290553Z AUTO VRB03KT 10SM CLR 06/00 A3019 RMK AO2 SLP228
T00560000 10117 20056 401670028 50002





000
SAUS44 KLZK 290554
MTRMWT
METAR KMWT 290553Z AUTO VRB03KT 10SM CLR 06/00 A3019 RMK AO2 SLP228
T00560000 10117 20056 401670028 50002





000
SAUS44 KLZK 290454
MTRMWT
METAR KMWT 290453Z AUTO 09003KT 10SM CLR 06/01 A3020 RMK AO2 SLP229
T00610006





000
SAUS44 KLZK 290454
MTRMWT
METAR KMWT 290453Z AUTO 09003KT 10SM CLR 06/01 A3020 RMK AO2 SLP229
T00610006





000
SAUS44 KLZK 290354
MTRMWT
METAR KMWT 290353Z AUTO 12006KT 10SM CLR 07/01 A3020 RMK AO2 SLP230
T00720011





000
SAUS44 KLZK 290354
MTRMWT
METAR KMWT 290353Z AUTO 12006KT 10SM CLR 07/01 A3020 RMK AO2 SLP230
T00720011





000
SAUS44 KLZK 290254
MTRMWT
METAR KMWT 290253Z AUTO 12006KT 10SM CLR 08/02 A3019 RMK AO2 SLP227
T00830017 53020





000
SAUS44 KLZK 290254
MTRMWT
METAR KMWT 290253Z AUTO 12006KT 10SM CLR 08/02 A3019 RMK AO2 SLP227
T00830017 53020





000
SAUS44 KLZK 290154
MTRMWT
METAR KMWT 290153Z AUTO 11004KT 10SM CLR 09/03 A3017 RMK AO2 SLP219
T00940028





000
SAUS44 KLZK 290154
MTRMWT
METAR KMWT 290153Z AUTO 11004KT 10SM CLR 09/03 A3017 RMK AO2 SLP219
T00940028





000
SAUS44 KLZK 290054
MTRMWT
METAR KMWT 290053Z AUTO 11004KT 10SM CLR 10/03 A3014 RMK AO2 SLP211
T01000033





000
SAUS44 KLZK 290054
MTRMWT
METAR KMWT 290053Z AUTO 11004KT 10SM CLR 10/03 A3014 RMK AO2 SLP211
T01000033





000
SAUS44 KLZK 282354
MTRMWT
METAR KMWT 282353Z AUTO 11006KT 10SM CLR 12/04 A3013 RMK AO2 SLP207
T01170039 10167 20117 53014





000
SAUS44 KLZK 282354
MTRMWT
METAR KMWT 282353Z AUTO 11006KT 10SM CLR 12/04 A3013 RMK AO2 SLP207
T01170039 10167 20117 53014





000
SAUS44 KLZK 282254
MTRMWT
METAR KMWT 282253Z AUTO 10008KT 10SM CLR 13/04 A3011 RMK AO2 SLP201
T01330044





000
SAUS44 KLZK 282254
MTRMWT
METAR KMWT 282253Z AUTO 10008KT 10SM CLR 13/04 A3011 RMK AO2 SLP201
T01330044





000
SAUS44 KLZK 282154
MTRMWT
METAR KMWT 282153Z AUTO 09008KT 070V130 10SM CLR 15/04 A3009 RMK AO2
SLP194 T01500044





000
SAUS44 KLZK 282054
MTRMWT
METAR KMWT 282053Z AUTO 14010KT 10SM CLR 16/03 A3009 RMK AO2 SLP192
T01610028 56017





000
SAUS44 KLZK 281954
MTRMWT
METAR KMWT 281953Z AUTO 16009G14KT 10SM CLR 16/04 A3010 RMK AO2
SLP195 T01560039





000
SAUS44 KLZK 281854
MTRMWT
METAR KMWT 281853Z AUTO 10005KT 10SM CLR 15/03 A3012 RMK AO2 SLP201
T01500033





000
SAUS44 KLZK 281854
MTRMWT
METAR KMWT 281853Z AUTO 10005KT 10SM CLR 15/03 A3012 RMK AO2 SLP201
T01500033





000
SAUS44 KLZK 281754
MTRMWT
METAR KMWT 281753Z AUTO VRB05KT 10SM BKN120 13/03 A3014 RMK AO2
SLP210 60000 T01280028 10128 20050 56015





000
SAUS44 KLZK 281754
MTRMWT
METAR KMWT 281753Z AUTO VRB05KT 10SM BKN120 13/03 A3014 RMK AO2
SLP210 60000 T01280028 10128 20050 56015





000
SAUS44 KLZK 281654
MTRMWT
METAR KMWT 281653Z AUTO 15009KT 10SM CLR 11/03 A3014 RMK AO2 SLP211
T01110028





000
SAUS44 KLZK 281654
MTRMWT
METAR KMWT 281653Z AUTO 15009KT 10SM CLR 11/03 A3014 RMK AO2 SLP211
T01110028





000
SAUS44 KLZK 281554
MTRMWT
METAR KMWT 281553Z AUTO 13006KT 10SM BKN110 08/03 A3015 RMK AO2
RAB29E38 SLP215 P0000 T00830033





000
SAUS44 KLZK 281454
MTRMWT
METAR KMWT 281453Z AUTO VRB04KT 10SM SCT085 BKN110 09/03 A3019 RMK
AO2 RAB09E25 SLP227 P0000 60000 T00890033 51023





000
SAUS44 KLZK 281454
MTRMWT
METAR KMWT 281453Z AUTO VRB04KT 10SM SCT085 BKN110 09/03 A3019 RMK
AO2 RAB09E25 SLP227 P0000 60000 T00890033 51023





000
SAUS44 KLZK 281354
MTRMWT
METAR KMWT 281353Z AUTO 00000KT 10SM OVC090 07/02 A3018 RMK AO2
PRESRR SLP225 T00720022





000
SAUS44 KLZK 281254
MTRMWT
METAR KMWT 281253Z AUTO VRB04KT 10SM SCT100 SCT110 06/02 A3013 RMK
AO2 SLP207 T00610017





000
SAUS44 KLZK 281254
MTRMWT
METAR KMWT 281253Z AUTO VRB04KT 10SM SCT100 SCT110 06/02 A3013 RMK
AO2 SLP207 T00610017





000
SAUS44 KLZK 281154
MTRMWT
METAR KMWT 281153Z AUTO 00000KT 10SM FEW080 BKN100 BKN120 05/02
A3012 RMK AO2 SLP202 T00500022 10056 20028 50003





000
SAUS44 KLZK 281154
MTRMWT
METAR KMWT 281153Z AUTO 00000KT 10SM FEW080 BKN100 BKN120 05/02
A3012 RMK AO2 SLP202 T00500022 10056 20028 50003





000
SAUS44 KLZK 281054
MTRMWT
METAR KMWT 281053Z AUTO 00000KT 10SM SCT065 BKN120 04/02 A3012 RMK
AO2 SLP202 T00440022





000
SAUS44 KLZK 281054
MTRMWT
METAR KMWT 281053Z AUTO 00000KT 10SM SCT065 BKN120 04/02 A3012 RMK
AO2 SLP202 T00440022





000
SAUS44 KLZK 280954
MTRMWT
METAR KMWT 280953Z AUTO 00000KT 10SM CLR 04/02 A3011 RMK AO2 SLP200
T00440022





000
SAUS44 KLZK 280854
MTRMWT
METAR KMWT 280853Z AUTO 00000KT 10SM CLR 03/02 A3011 RMK AO2 SLP200
T00330017 58013





000
SAUS44 KLZK 280754
MTRMWT
METAR KMWT 280753Z AUTO 00000KT 10SM CLR 04/01 A3012 RMK AO2 SLP205
T00390011





000
SAUS44 KLZK 280754
MTRMWT
METAR KMWT 280753Z AUTO 00000KT 10SM CLR 04/01 A3012 RMK AO2 SLP205
T00390011





000
SAUS44 KLZK 280654
MTRMWT
METAR KMWT 280653Z AUTO 00000KT 10SM CLR 04/01 A3014 RMK AO2 SLP211
T00440011





000
SAUS44 KLZK 280554
MTRMWT
METAR KMWT 280553Z AUTO 00000KT 10SM FEW095 06/01 A3015 RMK AO2
SLP212 T00560006 10122 20056 401500039 50004





000
SAUS44 KLZK 280554
MTRMWT
METAR KMWT 280553Z AUTO 00000KT 10SM FEW095 06/01 A3015 RMK AO2
SLP212 T00560006 10122 20056 401500039 50004





000
SAUS44 KLZK 280454
MTRMWT
METAR KMWT 280453Z AUTO 00000KT 10SM OVC100 07/01 A3015 RMK AO2
SLP213 T00670011





000
SAUS44 KLZK 280454
MTRMWT
METAR KMWT 280453Z AUTO 00000KT 10SM OVC100 07/01 A3015 RMK AO2
SLP213 T00670011





000
SAUS44 KLZK 280354
MTRMWT
METAR KMWT 280353Z AUTO 00000KT 10SM SCT100 BKN110 06/02 A3015 RMK
AO2 SLP213 T00610017





000
SAUS44 KLZK 280254
MTRMWT
METAR KMWT 280253Z AUTO 00000KT 10SM OVC120 07/01 A3013 RMK AO2
SLP209 T00670006 53012





000
SAUS44 KLZK 280254
MTRMWT
METAR KMWT 280253Z AUTO 00000KT 10SM OVC120 07/01 A3013 RMK AO2
SLP209 T00670006 53012





000
SAUS44 KLZK 280154
MTRMWT
METAR KMWT 280153Z AUTO 00000KT 10SM CLR 07/M01 A3012 RMK AO2 SLP205
T00721006





000
SAUS44 KLZK 280054
MTRMWT
METAR KMWT 280053Z AUTO 00000KT 10SM CLR 09/M02 A3010 RMK AO2 SLP200
T00891017





000
SAUS44 KLZK 272354
MTRMWT
METAR KMWT 272353Z AUTO 33005KT 10SM CLR 12/M05 A3010 RMK AO2 SLP196
T01221050 10150 20122 55000





000
SAUS44 KLZK 272254
MTRMWT
METAR KMWT 272253Z AUTO VRB03KT 10SM CLR 14/M03 A3009 RMK AO2 SLP192
T01391028





000
SAUS44 KLZK 272254
MTRMWT
METAR KMWT 272253Z AUTO VRB03KT 10SM CLR 14/M03 A3009 RMK AO2 SLP192
T01391028





000
SAUS44 KLZK 272154
MTRMWT
METAR KMWT 272153Z AUTO VRB04KT 10SM SCT065 14/M02 A3009 RMK AO2
SLP193 T01441022





000
SAUS44 KLZK 272054
MTRMWT
METAR KMWT 272053Z AUTO 33008KT 290V010 10SM SCT060 13/M02 A3010 RMK
AO2 SLP196 T01281017 58002





000
SAUS44 KLZK 271954
MTRMWT
METAR KMWT 271953Z AUTO 33008KT 290V360 10SM SCT050 BKN065 13/00
A3011 RMK AO2 SLP199 T01280000





000
SAUS44 KLZK 271954
MTRMWT
METAR KMWT 271953Z AUTO 33008KT 290V360 10SM SCT050 BKN065 13/00
A3011 RMK AO2 SLP199 T01280000





000
SAUS44 KLZK 271854
MTRMWT
METAR KMWT 271853Z AUTO 06007KT 10SM BKN060 BKN075 13/02 A3011 RMK
AO2 SLP198 T01330017





000
SAUS44 KLZK 271854
MTRMWT
METAR KMWT 271853Z AUTO 06007KT 10SM BKN060 BKN075 13/02 A3011 RMK
AO2 SLP198 T01330017





000
SAUS44 KLZK 271754
MTRMWT
METAR KMWT 271753Z AUTO 34006G18KT 10SM FEW050 BKN060 14/01 A3011
RMK AO2 SLP199 T01390011 10139 20039 51012





000
SAUS44 KLZK 271754
MTRMWT
METAR KMWT 271753Z AUTO 34006G18KT 10SM FEW050 BKN060 14/01 A3011
RMK AO2 SLP199 T01390011 10139 20039 51012





000
SAUS44 KLZK 271654
MTRMWT
METAR KMWT 271653Z AUTO VRB04KT 10SM FEW048 13/01 A3010 RMK AO2
SLP197 T01330006





000
SAUS44 KLZK 271654
MTRMWT
METAR KMWT 271653Z AUTO VRB04KT 10SM FEW048 13/01 A3010 RMK AO2
SLP197 T01330006





000
SAUS44 KLZK 271554
MTRMWT
METAR KMWT 271553Z AUTO VRB05KT 10SM CLR 12/02 A3009 RMK AO2 SLP193
T01220017





000
SAUS44 KLZK 271454
MTRMWT
METAR KMWT 271453Z AUTO 01003KT 10SM CLR 09/04 A3007 RMK AO2 SLP188
T00890039 53012





000
SAUS44 KLZK 271454
MTRMWT
METAR KMWT 271453Z AUTO 01003KT 10SM CLR 09/04 A3007 RMK AO2 SLP188
T00890039 53012





000
SAUS44 KLZK 271354
MTRMWT
METAR KMWT 271353Z AUTO 00000KT 10SM FEW110 06/03 A3005 RMK AO2
SLP181 T00560033





000
SAUS44 KLZK 271254
MTRMWT
METAR KMWT 271253Z AUTO 00000KT 10SM BKN110 04/03 A3003 RMK AO2
SLP175 T00440028





000
SAUS44 KLZK 271154
MTRMWT
METAR KMWT 271153Z AUTO 00000KT 10SM CLR 04/02 A3004 RMK AO2 SLP175
70009 T00390022 10056 20039 55004





000
SAUS44 KLZK 271154
MTRMWT
METAR KMWT 271153Z AUTO 00000KT 10SM CLR 04/02 A3004 RMK AO2 SLP175
70009 T00390022 10056 20039 55004





000
SAUS44 KLZK 271054
MTRMWT
METAR KMWT 271053Z AUTO 00000KT 10SM SCT090 04/02 A3002 RMK AO2
SLP170 T00440022





000
SAUS44 KLZK 271054
MTRMWT
METAR KMWT 271053Z AUTO 00000KT 10SM SCT090 04/02 A3002 RMK AO2
SLP170 T00440022





000
SAUS44 KLZK 270954
MTRMWT
METAR KMWT 270953Z AUTO 00000KT 10SM OVC100 05/02 A3003 RMK AO2
SLP173 T00500022





000
SAUS44 KLZK 270954
MTRMWT
METAR KMWT 270953Z AUTO 00000KT 10SM OVC100 05/02 A3003 RMK AO2
SLP173 T00500022





000
SAUS44 KLZK 270854
MTRMWT
METAR KMWT 270853Z AUTO 00000KT 10SM OVC100 06/02 A3005 RMK AO2
SLP178 T00560022 55000





000
SAUS44 KLZK 270754
MTRMWT
METAR KMWT 270753Z AUTO 00000KT 10SM OVC090 05/02 A3002 RMK AO2
SLP168 T00500017





000
SAUS44 KLZK 270754
MTRMWT
METAR KMWT 270753Z AUTO 00000KT 10SM OVC090 05/02 A3002 RMK AO2
SLP168 T00500017





    US Dept of Commerce
    National Oceanic and Atmospheric Administration
    National Weather Service
    1325 East West Highway
    Silver Spring, MD 20910
    Page Author: NWS Internet Services Team
Disclaimer
Information Quality
Credits
Glossary
Privacy Policy
Freedom of Information Act (FOIA)
About Us
Career Opportunities